Time;durP1;ratioP1;P1;durP2;ratioP2;P2;SDS_P1;SDS_P2;PMS_P1;PMS_P2;Temp;Humidity;BMP_temperature;BMP_pressure;BME280_temperature;BME280_humidity;BME280_pressure;Samples;Min_cycle;Max_cycle;Signal;HPM_P1;HPM_P2
2021/06/17 00:01:17;;;;;;;5.95;2.97;;;20.30;54.40;;;19.35;52.28;95845.69;4992678;28;20506;-69
2021/06/17 00:03:43;;;;;;;4.20;2.50;;;20.30;54.50;;;19.32;52.88;95847.00;4955689;28;20062;-69
2021/06/17 00:06:08;;;;;;;3.88;2.88;;;20.20;54.40;;;19.29;52.55;95842.19;4976566;28;20069;-69
2021/06/17 00:08:34;;;;;;;5.13;2.55;;;20.20;54.60;;;19.27;53.38;95849.63;4975394;28;20052;-69
2021/06/17 00:11:00;;;;;;;4.85;2.70;;;20.20;54.50;;;19.24;53.41;95834.13;4967413;28;20074;-69
2021/06/17 00:13:28;;;;;;;5.55;2.67;;;20.20;54.40;;;19.23;53.42;95840.50;4973202;28;20062;-69
2021/06/17 00:15:57;;;;;;;4.55;2.92;;;20.10;54.30;;;19.20;53.59;95836.47;4984930;23;20222;-63
2021/06/17 00:18:23;;;;;;;3.95;2.75;;;20.20;54.70;;;19.19;52.92;95840.19;4945827;28;20743;-62
2021/06/17 00:20:49;;;;;;;5.63;2.85;;;20.10;55.10;;;19.19;52.97;95845.53;4971878;28;20109;-68
2021/06/17 00:23:15;;;;;;;5.28;2.80;;;20.10;55.30;;;19.19;53.18;95842.84;4958730;28;20055;-68
2021/06/17 00:25:41;;;;;;;4.15;2.80;;;20.10;55.30;;;19.18;53.49;95851.91;4968808;28;20051;-68
2021/06/17 00:28:07;;;;;;;8.85;3.17;;;20.10;55.10;;;19.19;53.69;95856.19;4956009;28;20050;-68
2021/06/17 00:30:33;;;;;;;5.40;2.92;;;20.10;55.50;;;19.19;54.00;95855.38;4955449;28;20141;-68
2021/06/17 00:32:59;;;;;;;5.53;2.60;;;20.10;55.30;;;19.19;53.52;95850.06;4955773;28;20514;-68
2021/06/17 00:35:25;;;;;;;4.15;2.55;;;20.10;55.50;;;19.16;54.21;95843.34;4969140;28;20039;-68
2021/06/17 00:37:52;;;;;;;5.35;2.70;;;20.10;55.90;;;19.13;54.48;95845.72;4960688;28;20138;-68
2021/06/17 00:40:17;;;;;;;4.93;3.08;;;20.00;56.40;;;19.07;55.04;95841.38;4960943;28;20062;-70
2021/06/17 00:42:48;;;;;;;7.43;3.05;;;20.00;56.80;;;19.03;55.70;95840.28;4952858;28;20035;-68
2021/06/17 00:45:22;;;;;;;5.00;2.97;;;20.00;56.70;;;19.01;55.56;95837.88;4939862;28;21620;-68
2021/06/17 00:47:47;;;;;;;6.88;3.05;;;19.90;56.90;;;18.98;54.62;95833.81;4971605;28;20069;-69
2021/06/17 00:50:13;;;;;;;6.45;2.80;;;19.90;56.00;;;18.94;54.92;95835.38;4976669;28;20035;-68
2021/06/17 00:52:39;;;;;;;5.25;2.53;;;19.90;56.10;;;18.93;54.12;95831.09;4980739;28;20699;-68
2021/06/17 00:55:06;;;;;;;8.02;3.00;;;19.90;55.80;;;18.92;54.60;95834.00;4968734;28;20063;-68
2021/06/17 00:57:31;;;;;;;5.13;2.70;;;19.90;55.90;;;18.92;54.01;95829.47;4969544;28;20070;-68
2021/06/17 00:59:57;;;;;;;5.18;3.08;;;20.00;55.90;;;18.92;53.67;95824.16;4969393;28;20039;-68
2021/06/17 01:02:23;;;;;;;6.43;3.33;;;19.90;55.50;;;18.93;53.87;95830.28;4968852;28;20528;-68
2021/06/17 01:04:49;;;;;;;5.10;2.83;;;20.00;56.00;;;18.91;53.96;95827.88;4999131;28;20117;-68
2021/06/17 01:07:40;;;;;;;4.20;2.55;;;19.90;55.60;;;18.91;54.95;95827.88;4945943;28;20526;-68
2021/06/17 01:10:12;;;;;;;5.20;2.80;;;19.90;55.90;;;18.87;55.12;95821.44;4940908;28;20031;-68
2021/06/17 01:13:02;;;;;;;6.57;2.92;;;19.90;56.20;;;18.86;55.74;95819.81;4955895;28;20030;-68
2021/06/17 01:15:28;;;;;;;7.30;3.42;;;19.80;56.30;;;18.80;54.96;95820.81;4964020;28;20042;-68
2021/06/17 01:18:10;;;;;;;6.40;3.45;;;19.80;56.00;;;18.77;55.44;95821.28;4942941;28;20511;-68
2021/06/17 01:20:54;;;;;;;5.60;3.38;;;19.70;56.20;;;18.73;55.60;95820.16;4966390;28;20122;-69
2021/06/17 01:24:00;;;;;;;7.57;3.13;;;19.70;55.80;;;18.69;54.97;95824.38;4973684;28;20034;-69
2021/06/17 01:27:32;;;;;;;5.53;2.85;;;19.70;55.80;;;18.70;56.04;95823.31;4948183;28;20074;-69
2021/06/17 01:30:09;;;;;;;7.65;3.30;;;19.70;56.10;;;18.70;56.47;95826.00;4957338;28;20035;-69
2021/06/17 01:32:36;;;;;;;5.90;3.25;;;19.70;57.40;;;18.71;55.15;95813.47;4942094;28;20126;-68
2021/06/17 01:35:03;;;;;;;4.32;3.22;;;19.70;57.40;;;18.71;55.55;95814.28;4939629;28;20550;-69
2021/06/17 01:37:29;;;;;;;7.97;3.65;;;19.70;56.20;;;18.70;55.06;95807.34;4962401;28;20577;-67
2021/06/17 01:39:55;;;;;;;4.30;3.10;;;19.70;56.10;;;18.70;55.21;95811.88;4970892;28;20035;-69
2021/06/17 01:42:23;;;;;;;6.68;3.30;;;19.70;56.70;;;18.67;54.95;95816.63;4960134;28;20039;-69
2021/06/17 01:44:49;;;;;;;4.28;2.75;;;19.70;56.30;;;18.64;54.80;95811.81;4952416;28;20086;-69
2021/06/17 01:47:15;;;;;;;9.23;3.53;;;19.70;56.20;;;18.66;54.92;95808.88;4958137;28;20043;-69
2021/06/17 01:49:41;;;;;;;6.10;3.30;;;19.70;56.10;;;18.66;54.95;95803.56;4960482;28;20058;-69
2021/06/17 01:52:07;;;;;;;4.60;3.30;;;19.70;56.20;;;18.65;55.03;95808.09;4954206;28;20069;-69
2021/06/17 01:54:33;;;;;;;5.00;3.20;;;19.70;57.00;;;18.64;55.41;95811.00;4976786;28;20037;-69
2021/06/17 01:56:59;;;;;;;4.70;3.25;;;19.70;57.00;;;18.61;56.21;95798.94;4951687;28;20042;-69
2021/06/17 01:59:26;;;;;;;7.00;3.15;;;19.60;57.50;;;18.58;55.70;95801.31;4942766;28;20050;-69
2021/06/17 02:01:56;;;;;;;5.50;3.25;;;19.60;57.30;;;18.58;56.08;95801.31;4952641;28;20470;-68
2021/06/17 02:04:22;;;;;;;6.72;3.50;;;19.60;57.20;;;18.58;56.22;95806.63;4936204;28;20804;-68
2021/06/17 02:06:47;;;;;;;5.63;3.50;;;19.60;58.30;;;18.54;56.17;95802.81;4941522;28;20062;-69
2021/06/17 02:09:13;;;;;;;8.02;3.60;;;19.50;58.30;;;18.50;56.98;95793.72;4968568;28;20047;-68
2021/06/17 02:11:39;;;;;;;5.15;3.25;;;19.50;58.20;;;18.48;56.26;95793.97;4937673;28;20522;-69
2021/06/17 02:14:05;;;;;;;5.30;3.22;;;19.60;57.80;;;18.47;56.06;95788.88;4972660;28;20578;-69
2021/06/17 02:16:34;;;;;;;5.20;3.45;;;19.50;57.90;;;18.45;56.59;95785.66;4950382;28;20051;-69
2021/06/17 02:19:00;;;;;;;5.53;3.47;;;19.50;58.20;;;18.42;56.46;95784.31;4931495;28;20071;-69
2021/06/17 02:21:26;;;;;;;4.97;3.25;;;19.50;58.30;;;18.41;56.24;95785.34;4951893;28;20070;-64
2021/06/17 02:23:55;;;;;;;7.30;3.63;;;19.50;58.20;;;18.40;57.67;95781.09;4962707;28;20050;-64
2021/06/17 02:26:20;;;;;;;5.85;3.55;;;19.40;58.50;;;18.40;56.62;95786.41;4969743;28;20387;-63
2021/06/17 02:28:47;;;;;;;4.90;3.30;;;19.40;59.10;;;18.39;57.26;95791.97;4957043;28;20031;-63
2021/06/17 02:31:16;;;;;;;5.88;3.80;;;19.50;59.20;;;18.36;57.30;95778.09;4969254;28;20065;-64
2021/06/17 02:33:41;;;;;;;6.90;3.35;;;19.40;59.40;;;18.34;57.46;95784.72;4940851;28;20094;-64
2021/06/17 02:36:07;;;;;;;5.25;3.33;;;19.40;59.60;;;18.32;57.00;95784.94;4949999;28;20043;-63
2021/06/17 02:38:36;;;;;;;4.05;3.03;;;19.40;59.30;;;18.28;57.87;95785.69;4956475;28;20045;-63
2021/06/17 02:41:04;;;;;;;4.82;3.42;;;19.30;59.40;;;18.25;57.84;95781.66;4982990;28;20110;-63
2021/06/17 02:43:33;;;;;;;6.80;4.00;;;19.30;59.50;;;18.19;57.45;95780.00;4959472;28;20411;-63
2021/06/17 02:45:59;;;;;;;5.90;3.60;;;19.20;59.50;;;18.14;58.13;95773.78;4950992;28;20054;-63
2021/06/17 02:48:25;;;;;;;7.68;3.75;;;19.20;59.80;;;18.08;57.91;95775.56;4967270;28;20043;-64
2021/06/17 02:50:51;;;;;;;7.43;3.83;;;19.10;60.10;;;18.02;58.54;95780.00;4968511;28;20050;-64
2021/06/17 02:53:17;;;;;;;7.78;3.97;;;19.10;59.70;;;17.96;58.29;95772.19;4966285;28;20402;-63
2021/06/17 02:55:43;;;;;;;15.02;4.45;;;19.10;59.60;;;17.91;57.67;95778.25;4949477;28;20333;-63
2021/06/17 02:58:38;;;;;;;8.35;4.07;;;19.00;59.50;;;17.85;59.13;95775.72;4952617;28;20040;-64
2021/06/17 03:01:38;;;;;;;8.07;4.60;;;19.00;59.70;;;17.79;59.13;95769.53;4949687;28;20046;-63
2021/06/17 03:04:14;;;;;;;6.82;4.43;;;18.90;59.70;;;17.73;58.94;95773.97;4953073;28;20407;-65
2021/06/17 03:06:50;;;;;;;4.32;3.45;;;18.80;59.60;;;17.68;58.41;95760.59;4931105;28;20043;-63
2021/06/17 03:09:20;;;;;;;7.38;3.97;;;18.80;59.60;;;17.63;58.64;95764.97;4984660;28;20462;-63
2021/06/17 03:11:47;;;;;;;7.70;4.32;;;18.70;59.80;;;17.59;57.65;95756.66;4967669;28;20490;-64
2021/06/17 03:14:19;;;;;;;4.55;3.95;;;18.70;59.80;;;17.56;59.15;95757.16;4958749;28;20036;-63
2021/06/17 03:16:47;;;;;;;6.47;3.97;;;18.60;60.00;;;17.54;58.79;95753.94;4930420;28;20047;-63
2021/06/17 03:19:13;;;;;;;8.15;4.13;;;18.60;60.10;;;17.54;58.68;95759.25;4946876;28;20038;-63
2021/06/17 03:21:43;;;;;;;8.18;4.65;;;18.60;60.20;;;17.53;58.90;95757.63;4966075;28;20036;-64
2021/06/17 03:24:10;;;;;;;8.77;4.90;;;18.60;60.30;;;17.52;58.13;95758.69;4963072;28;20093;-63
2021/06/17 03:26:37;;;;;;;6.00;4.38;;;18.60;60.20;;;17.51;58.49;95765.06;4934261;28;20039;-64
2021/06/17 03:29:03;;;;;;;8.75;4.50;;;18.70;60.30;;;17.50;59.34;95760.78;4940833;28;20039;-63
2021/06/17 03:31:29;;;;;;;7.65;4.57;;;18.60;60.70;;;17.53;59.27;95768.28;4946473;28;20094;-64
2021/06/17 03:33:55;;;;;;;8.85;4.18;;;18.70;60.80;;;17.53;59.34;95768.28;4958457;28;20063;-63
2021/06/17 03:36:21;;;;;;;7.50;4.85;;;18.70;61.00;;;17.53;59.70;95767.47;4955838;28;20043;-64
2021/06/17 03:38:47;;;;;;;6.13;4.60;;;18.60;61.00;;;17.51;58.86;95767.72;4952749;28;20392;-63
2021/06/17 03:41:13;;;;;;;10.93;4.70;;;18.60;61.30;;;17.50;59.78;95773.28;4967069;28;20358;-64
2021/06/17 03:43:39;;;;;;;6.20;4.10;;;18.60;61.80;;;17.51;59.39;95774.88;4942436;28;20046;-67
2021/06/17 03:46:05;;;;;;;8.68;4.80;;;18.60;62.00;;;17.49;59.48;95769.81;4964739;28;20466;-65
2021/06/17 03:48:31;;;;;;;5.72;4.43;;;18.60;61.90;;;17.47;60.46;95763.94;4959608;28;20071;-65
2021/06/17 03:50:58;;;;;;;5.55;4.20;;;18.60;62.00;;;17.46;59.87;95772.94;4949105;28;20043;-65
2021/06/17 03:53:23;;;;;;;8.75;4.30;;;18.60;62.20;;;17.48;60.25;95768.19;4933621;28;20055;-64
2021/06/17 03:55:52;;;;;;;6.68;3.95;;;18.60;62.50;;;17.51;60.21;95774.88;4965842;28;20039;-63
2021/06/17 03:58:18;;;;;;;8.00;4.43;;;18.60;61.70;;;17.47;60.45;95777.22;4973091;28;20062;-63
2021/06/17 04:00:43;;;;;;;7.07;5.22;;;18.60;62.30;;;17.44;60.37;95783.03;4980375;28;20514;-64
2021/06/17 04:03:10;;;;;;;7.65;4.80;;;18.50;62.90;;;17.41;60.32;95781.63;4949517;28;20108;-63
2021/06/17 04:05:36;;;;;;;11.45;5.40;;;18.50;63.00;;;17.41;60.15;95780.81;4948378;28;20541;-63
2021/06/17 04:08:08;;;;;;;10.60;7.90;;;18.50;63.10;;;17.38;62.51;95786.63;4952830;28;20031;-63
2021/06/17 04:10:34;;;;;;;18.15;12.23;;;18.60;63.30;;;17.37;61.25;95790.31;4939924;28;20040;-63
2021/06/17 04:13:00;;;;;;;18.52;13.48;;;18.60;63.50;;;17.40;61.67;95797.81;4952216;28;20051;-63
2021/06/17 04:15:27;;;;;;;8.32;6.97;;;18.60;64.00;;;17.41;61.79;95796.78;4952760;28;20063;-64
2021/06/17 04:18:00;;;;;;;14.10;9.02;;;18.60;64.10;;;17.41;62.62;95810.06;4950892;28;20055;-63
2021/06/17 04:20:32;;;;;;;7.82;5.47;;;18.60;64.50;;;17.40;63.14;95811.09;4916842;28;20097;-64
2021/06/17 04:22:58;;;;;;;7.90;4.85;;;18.60;64.50;;;17.40;62.00;95811.09;4950613;28;20038;-63
2021/06/17 04:25:24;;;;;;;8.80;4.90;;;18.60;64.80;;;17.42;62.46;95814.34;4949893;28;20346;-66
2021/06/17 04:27:54;;;;;;;6.10;4.50;;;18.60;65.20;;;17.44;62.72;95817.59;4947130;28;20050;-64
2021/06/17 04:30:20;;;;;;;7.10;5.15;;;18.70;65.20;;;17.47;62.86;95810.97;4960308;28;20130;-64
2021/06/17 04:32:47;;;;;;;6.80;4.68;;;18.70;65.70;;;17.49;63.45;95814.22;4933158;28;20163;-64
2021/06/17 04:35:14;;;;;;;6.53;4.72;;;18.70;65.80;;;17.50;63.85;95813.16;4937096;28;20364;-64
2021/06/17 04:37:40;;;;;;;6.85;4.75;;;18.80;65.70;;;17.55;62.88;95816.72;4951635;28;20035;-65
2021/06/17 04:40:07;;;;;;;7.63;4.70;;;18.80;65.20;;;17.60;63.54;95810.66;4977683;28;20134;-65
2021/06/17 04:42:33;;;;;;;8.90;5.00;;;18.90;65.40;;;17.65;63.78;95819.56;4984611;28;20406;-65
2021/06/17 04:44:59;;;;;;;8.10;5.03;;;19.00;64.80;;;17.71;63.28;95817.81;4980421;28;20058;-66
2021/06/17 04:47:24;;;;;;;10.85;5.07;;;19.00;64.60;;;17.77;63.21;95822.16;4946264;28;20036;-67
2021/06/17 04:49:51;;;;;;;7.88;5.15;;;19.10;64.80;;;17.81;63.12;95822.50;4974582;28;20043;-66
2021/06/17 04:52:29;;;;;;;6.43;4.60;;;19.10;65.40;;;17.87;65.20;95822.31;4951601;28;20032;-66
2021/06/17 04:54:55;;;;;;;15.57;10.88;;;19.20;65.70;;;17.93;63.95;95825.91;4996460;28;20027;-67
2021/06/17 04:57:21;;;;;;;26.90;21.60;;;19.30;65.70;;;17.98;63.88;95828.63;4970870;28;20042;-67
2021/06/17 04:59:46;;;;;;;15.38;10.80;;;19.40;65.40;;;18.03;63.61;95831.38;4962049;28;20054;-67
2021/06/17 05:02:12;;;;;;;7.82;6.05;;;19.40;65.00;;;18.09;63.29;95826.94;4942717;28;20028;-62
2021/06/17 05:04:39;;;;;;;8.27;5.75;;;19.50;64.10;;;18.13;63.24;95834.22;4950699;28;20117;-65
2021/06/17 05:12:16;;;;;;;12.50;4.85;;;19.60;61.30;;;18.31;62.07;95833.94;4937590;28;20292;-65
2021/06/17 05:14:42;;;;;;;7.82;4.90;;;19.60;61.50;;;18.37;62.03;95842.81;4935776;28;20090;-70
2021/06/17 05:17:08;;;;;;;44.92;19.35;;;19.70;61.70;;;18.44;62.30;95842.66;4935972;28;20043;-64
2021/06/17 05:19:33;;;;;;;46.67;16.95;;;19.80;61.80;;;18.52;62.12;95840.38;4936384;28;20043;-64
2021/06/17 05:21:59;;;;;;;15.52;8.02;;;19.90;62.10;;;18.62;60.87;95845.03;4958961;28;20487;-64
2021/06/17 05:24:26;;;;;;;18.38;7.60;;;20.10;60.80;;;18.67;61.36;95837.94;4952265;28;20050;-64
2021/06/17 05:26:52;;;;;;;27.17;18.42;;;20.10;60.70;;;18.77;60.81;95839.13;4965165;28;20047;-66
2021/06/17 05:29:17;;;;;;;12.23;8.93;;;20.30;61.00;;;18.87;61.00;95837.41;4951573;28;20133;-66
2021/06/17 05:31:43;;;;;;;14.18;7.03;;;20.30;60.60;;;18.96;60.92;95833.25;4929812;28;20047;-65
2021/06/17 05:34:09;;;;;;;9.38;7.63;;;20.50;60.50;;;19.07;61.51;95836.06;4964579;28;20070;-65
2021/06/17 05:36:34;;;;;;;13.43;6.90;;;20.60;60.60;;;19.18;61.01;95837.78;4949387;28;20058;-65
2021/06/17 05:39:00;;;;;;;8.95;5.95;;;20.80;60.30;;;19.32;60.54;95843.53;4965151;28;20055;-65
2021/06/17 05:41:26;;;;;;;10.65;5.57;;;21.00;60.60;;;19.45;60.93;95848.47;4974073;28;20070;-65
2021/06/17 05:43:52;;;;;;;12.48;6.05;;;21.20;60.00;;;19.58;61.54;95838.25;4969463;28;20059;-65
2021/06/17 05:46:18;;;;;;;17.02;13.27;;;21.60;59.70;;;19.71;61.05;95841.59;4964375;28;20042;-66
2021/06/17 05:48:43;;;;;;;10.65;7.57;;;21.70;57.90;;;19.84;59.96;95841.16;4969802;28;20484;-66
2021/06/17 05:51:09;;;;;;;14.23;6.65;;;21.90;56.90;;;19.96;60.71;95839.13;4968954;28;20047;-66
2021/06/17 05:53:35;;;;;;;7.55;5.20;;;22.00;57.90;;;20.10;60.14;95842.16;4946450;28;20091;-66
2021/06/17 05:56:01;;;;;;;20.95;14.60;;;22.30;55.80;;;20.25;58.48;95841.50;4965095;28;20046;-65
2021/06/17 05:58:26;;;;;;;34.63;22.13;;;22.50;54.10;;;20.38;58.90;95839.19;4932177;28;20039;-65
2021/06/17 06:00:52;;;;;;;9.02;6.70;;;22.60;53.60;;;20.53;58.21;95838.50;4961889;28;20087;-66
2021/06/17 06:03:18;;;;;;;8.15;5.78;;;22.70;52.60;;;20.66;56.97;95840.75;4965433;28;20058;-66
2021/06/17 06:05:44;;;;;;;7.55;5.55;;;22.90;52.50;;;20.80;57.06;95843.75;4953734;28;20039;-66
2021/06/17 06:08:13;;;;;;;8.48;5.00;;;23.00;51.90;;;20.97;56.96;95843.56;4949350;28;20498;-66
2021/06/17 06:10:40;;;;;;;9.00;4.63;;;23.20;52.10;;;21.12;56.70;95846.31;4968099;28;20531;-66
2021/06/17 06:13:06;;;;;;;10.00;5.28;;;23.30;50.40;;;21.26;56.27;95844.78;4963618;28;20050;-64
2021/06/17 06:15:33;;;;;;;10.93;5.03;;;23.50;50.80;;;21.39;55.59;95844.28;4930242;28;20031;-69
2021/06/17 06:18:13;;;;;;;11.95;5.10;;;23.60;49.70;;;21.54;53.88;95838.19;4964468;28;20177;-65
2021/06/17 06:20:41;;;;;;;9.55;4.40;;;23.80;49.50;;;21.73;54.65;95846.53;4964323;28;20042;-68
2021/06/17 06:23:08;;;;;;;9.93;4.30;;;24.10;49.40;;;21.90;55.20;95841.72;4950063;28;20403;-66
2021/06/17 06:25:34;;;;;;;8.73;4.72;;;24.30;49.60;;;22.04;54.60;95841.19;4950642;28;20038;-68
2021/06/17 06:28:00;;;;;;;7.05;4.25;;;24.40;48.90;;;22.18;54.54;95843.13;4965000;28;20113;-67
2021/06/17 06:30:26;;;;;;;11.13;5.13;;;24.60;49.80;;;22.34;54.65;95846.56;4951247;28;20039;-68
2021/06/17 06:32:51;;;;;;;8.48;4.88;;;24.80;49.40;;;22.48;54.44;95850.31;4951351;28;20039;-67
2021/06/17 06:35:17;;;;;;;8.40;4.25;;;25.10;48.70;;;22.65;53.91;95849.22;4957737;28;20094;-67
2021/06/17 06:37:50;;;;;;;8.85;5.03;;;25.40;48.30;;;22.82;54.34;95841.69;4963912;28;20206;-67
2021/06/17 06:40:17;;;;;;;7.03;4.43;;;25.70;48.50;;;23.00;53.68;95846.47;4955925;28;20879;-65
2021/06/17 06:42:43;;;;;;;6.47;4.05;;;25.80;47.20;;;23.19;53.40;95858.22;4968060;28;20035;-67
2021/06/17 06:45:10;;;;;;;7.22;4.53;;;26.10;47.30;;;23.38;52.67;95846.88;4936896;28;20031;-68
2021/06/17 06:47:36;;;;;;;6.93;4.13;;;26.10;45.60;;;23.57;52.93;95852.44;4948573;28;20375;-65
2021/06/17 06:50:02;;;;;;;8.27;4.43;;;26.40;46.70;;;23.77;52.67;95863.06;4977812;28;20031;-67
2021/06/17 06:52:28;;;;;;;6.28;4.03;;;26.60;45.60;;;23.99;52.09;95849.19;4964271;28;20128;-66
2021/06/17 06:54:58;;;;;;;5.80;4.15;;;27.00;44.70;;;24.24;51.77;95845.53;4960807;28;20035;-71
2021/06/17 06:57:27;;;;;;;7.60;4.22;;;27.20;43.50;;;24.51;51.50;95851.25;4954273;28;20094;-68
2021/06/17 06:59:53;;;;;;;7.80;4.00;;;27.50;44.00;;;24.75;51.21;95851.28;4947346;28;20065;-67
2021/06/17 07:02:18;;;;;;;7.90;4.72;;;27.80;43.40;;;24.98;50.31;95855.88;4982679;28;20023;-68
2021/06/17 07:04:44;;;;;;;8.80;5.47;;;28.10;42.90;;;25.23;50.46;95864.78;4948925;28;20038;-67
2021/06/17 07:07:10;;;;;;;7.03;4.43;;;28.50;43.80;;;25.42;49.94;95860.22;4962754;28;20050;-68
2021/06/17 07:09:36;;;;;;;6.03;4.00;;;28.70;42.00;;;25.61;49.61;95855.69;4953094;28;20039;-65
2021/06/17 07:12:04;;;;;;;5.95;4.20;;;28.90;41.20;;;25.73;48.78;95865.25;4968934;28;20089;-66
2021/06/17 07:14:31;;;;;;;8.60;4.13;;;28.80;41.10;;;25.83;48.58;95860.53;4968069;28;20066;-64
2021/06/17 07:16:57;;;;;;;11.40;5.50;;;29.00;40.90;;;25.94;49.49;95858.47;4947761;28;20058;-64
2021/06/17 07:19:22;;;;;;;9.85;5.00;;;29.20;43.20;;;26.10;48.58;95864.44;4948005;28;20169;-65
2021/06/17 07:21:48;;;;;;;7.72;4.15;;;29.40;40.70;;;26.24;48.63;95866.06;4978141;28;20035;-67
2021/06/17 07:24:14;;;;;;;6.65;3.63;;;29.50;41.90;;;26.41;48.57;95870.16;4931475;28;20040;-63
2021/06/17 07:26:40;;;;;;;7.15;4.10;;;29.70;41.60;;;26.57;48.04;95871.53;4935091;28;20031;-65
2021/06/17 07:29:06;;;;;;;6.68;4.22;;;29.90;39.50;;;26.71;47.42;95875.06;4935809;28;20067;-65
2021/06/17 07:31:32;;;;;;;5.97;3.92;;;30.00;38.90;;;26.84;47.47;95870.78;4963520;28;20067;-65
2021/06/17 07:33:57;;;;;;;5.32;3.47;;;30.00;40.40;;;27.00;47.53;95865.94;4979261;28;20474;-65
2021/06/17 07:36:23;;;;;;;6.10;3.83;;;30.40;39.60;;;27.17;47.14;95866.16;4931606;28;20054;-67
2021/06/17 07:38:49;;;;;;;5.35;3.53;;;30.60;40.60;;;27.34;47.79;95871.72;4963041;28;20067;-64
2021/06/17 07:41:15;;;;;;;6.68;3.55;;;31.00;40.00;;;27.54;47.84;95875.09;4966502;28;20047;-66
2021/06/17 07:43:40;;;;;;;21.65;13.18;;;31.30;40.60;;;27.74;46.92;95874.72;4950523;28;20364;-65
2021/06/17 07:46:06;;;;;;;21.20;17.50;;;31.60;38.70;;;27.90;46.70;95870.56;4958446;28;20139;-68
2021/06/17 07:48:33;;;;;;;7.68;4.75;;;31.80;37.60;;;28.12;46.01;95869.81;4963471;28;20120;-65
2021/06/17 07:50:59;;;;;;;7.63;5.50;;;32.00;37.70;;;28.29;46.07;95877.25;4965538;28;20035;-66
2021/06/17 07:53:24;;;;;;;6.15;4.00;;;32.20;36.30;;;28.44;45.72;95871.50;4947657;28;20552;-67
2021/06/17 07:55:50;;;;;;;9.90;3.60;;;32.30;38.20;;;28.62;45.67;95878.63;4947625;28;20047;-66
2021/06/17 07:58:17;;;;;;;6.05;3.60;;;32.50;37.00;;;28.81;45.85;95880.31;4978710;28;20054;-68
2021/06/17 08:00:42;;;;;;;4.82;3.42;;;32.50;37.40;;;28.94;45.08;95879.44;4974793;28;20082;-64
2021/06/17 08:03:08;;;;;;;3.67;2.88;;;32.60;36.20;;;29.10;44.49;95883.34;4951795;28;20063;-67
2021/06/17 08:05:34;;;;;;;8.07;3.10;;;32.70;37.80;;;29.26;44.41;95876.41;4956271;28;20038;-66
2021/06/17 08:08:00;;;;;;;8.02;3.38;;;32.80;37.30;;;29.43;44.46;95874.88;4939784;28;20110;-67
2021/06/17 08:10:26;;;;;;;5.68;2.80;;;33.10;37.40;;;29.63;44.78;95874.31;4961903;28;20046;-67
2021/06/17 08:12:51;;;;;;;6.75;3.42;;;33.30;37.20;;;29.85;44.45;95866.03;4967877;28;20047;-66
2021/06/17 08:15:17;;;;;;;5.57;3.10;;;33.50;35.90;;;30.07;43.90;95864.34;4951231;28;20090;-66
2021/06/17 08:17:43;;;;;;;6.80;3.28;;;33.70;35.40;;;30.23;43.23;95857.31;4950414;28;20048;-64
2021/06/17 08:20:09;;;;;;;6.10;3.50;;;33.70;34.80;;;30.39;42.76;95857.63;4955285;28;20028;-67
2021/06/17 08:22:37;;;;;;;5.93;2.88;;;33.90;34.00;;;30.58;42.43;95857.28;4952392;28;20562;-66
2021/06/17 08:25:03;;;;;;;4.75;3.13;;;34.10;34.90;;;30.79;41.69;95860.94;4957780;28;20035;-65
2021/06/17 08:27:29;;;;;;;4.57;2.78;;;34.40;33.50;;;30.98;41.66;95872.19;4967083;28;20062;-72
2021/06/17 08:29:55;;;;;;;8.98;3.75;;;34.60;34.60;;;31.21;41.05;95866.53;4952453;28;20222;-65
2021/06/17 08:32:20;;;;;;;12.13;8.77;;;34.60;33.00;;;31.43;40.50;95866.28;4952856;28;20058;-65
2021/06/17 08:34:46;;;;;;;4.93;3.60;;;34.80;33.20;;;31.68;40.39;95867.25;4952501;28;20043;-65
2021/06/17 08:37:12;;;;;;;7.03;3.10;;;35.00;33.60;;;31.85;39.82;95874.53;4952224;28;20031;-67
2021/06/17 08:39:38;;;;;;;4.45;2.83;;;35.00;32.30;;;31.93;39.24;95874.50;4950258;28;20067;-68
2021/06/17 08:42:04;;;;;;;6.75;4.40;;;34.80;32.60;;;32.03;38.99;95873.28;4957375;28;20024;-67
2021/06/17 08:44:30;;;;;;;9.73;4.60;;;35.00;32.40;;;32.15;37.89;95864.41;4985258;28;20517;-66
2021/06/17 08:46:57;;;;;;;4.07;2.70;;;35.30;31.20;;;32.27;37.61;95876.16;4955624;28;20036;-65
2021/06/17 08:49:24;;;;;;;5.78;3.30;;;35.40;31.60;;;32.43;37.95;95875.56;4953352;28;20047;-65
2021/06/17 08:51:50;;;;;;;4.80;3.25;;;35.50;33.10;;;32.59;37.33;95871.06;4966499;28;20455;-66
2021/06/17 08:54:20;;;;;;;3.78;2.42;;;35.60;32.10;;;32.71;35.77;95873.84;4934341;28;20442;-66
2021/06/17 08:56:49;;;;;;;;;;;35.60;30.30;;;32.75;35.96;95873.97;4936313;28;20047;-66
2021/06/17 08:59:15;;;;;;;5.65;3.17;;;35.80;30.40;;;32.82;36.51;95861.44;4971120;28;19946;-67
2021/06/17 09:01:41;;;;;;;5.60;2.90;;;35.90;29.50;;;32.95;35.88;95864.16;4950809;28;20179;-65
2021/06/17 09:04:25;;;;;;;7.35;3.25;;;36.00;28.90;;;33.03;34.10;95860.53;4970818;28;20031;-65
2021/06/17 09:07:21;;;;;;;5.88;2.75;;;36.00;29.90;;;33.09;33.62;95867.38;4936352;28;20043;-64
2021/06/17 09:09:47;;;;;;;4.13;2.65;;;36.10;29.00;;;33.22;35.82;95860.78;4981228;28;20050;-66
2021/06/17 09:12:16;;;;;;;6.88;4.30;;;36.40;30.30;;;33.43;35.31;95861.50;4992191;28;20027;-66
2021/06/17 09:14:52;;;;;;;;;;;36.60;31.10;;;33.54;34.63;95869.25;4985671;28;20446;-66
2021/06/17 09:17:18;;;;;;;5.30;2.63;;;36.70;29.30;;;33.61;35.14;95862.06;4970441;28;20293;-65
2021/06/17 09:19:50;;;;;;;5.68;2.80;;;36.80;26.90;;;33.74;31.35;95866.38;4960327;28;20503;-65
2021/06/17 09:22:19;;;;;;;6.25;2.95;;;37.00;26.20;;;33.88;32.15;95860.56;4957947;28;20759;-65
2021/06/17 09:24:46;;;;;;;6.65;3.10;;;37.10;26.80;;;34.06;33.24;95864.63;4952991;28;20039;-68
2021/06/17 09:27:29;;;;;;;4.40;2.38;;;37.20;28.40;;;34.19;32.02;95865.41;4965663;28;20402;-68
2021/06/17 09:30:17;;;;;;;7.22;3.05;;;37.40;27.50;;;34.38;32.33;95871.03;4958534;28;20046;-66
2021/06/17 09:32:53;;;;;;;5.15;2.50;;;37.60;28.10;;;34.50;30.65;95863.94;4951838;28;20063;-67
2021/06/17 09:35:24;;;;;;;5.28;2.55;;;37.70;26.30;;;34.68;32.22;95871.47;4935216;28;20122;-66
2021/06/17 09:37:50;;;;;;;5.25;2.80;;;38.00;28.20;;;34.86;33.44;95865.72;4953087;28;20380;-65
2021/06/17 09:40:28;;;;;;;4.78;2.90;;;38.10;29.30;;;35.07;32.50;95860.00;4950425;28;20031;-63
2021/06/17 09:43:15;;;;;;;6.35;2.70;;;38.40;28.00;;;35.27;31.07;95873.41;4966134;28;20098;-65
2021/06/17 09:45:51;;;;;;;3.22;2.25;;;38.20;26.10;;;35.41;30.76;95874.94;4969967;28;20058;-66
2021/06/17 09:48:42;;;;;;;7.45;2.38;;;38.40;26.60;;;35.62;30.06;95878.19;4959412;28;20505;-65
2021/06/17 09:51:27;;;;;;;4.80;2.38;;;38.70;26.00;;;35.66;29.01;95884.53;4942692;28;20090;-66
2021/06/17 09:54:05;;;;;;;4.65;2.13;;;38.30;25.30;;;35.69;30.11;95875.59;4969222;28;20043;-65
2021/06/17 09:56:32;;;;;;;3.58;2.22;;;38.40;25.60;;;35.77;29.79;95882.84;4969589;28;20066;-64
2021/06/17 09:58:58;;;;;;;6.00;2.40;;;38.50;24.30;;;35.90;30.25;95886.28;4965816;28;20038;-62
2021/06/17 10:01:31;;;;;;;4.90;2.33;;;39.00;25.00;;;36.10;28.52;95887.09;4953007;28;20047;-64
2021/06/17 10:04:09;;;;;;;3.97;2.58;;;39.40;24.70;;;36.45;29.50;95890.63;4967832;28;20054;-64
2021/06/17 10:06:35;;;;;;;4.90;2.63;;;40.10;25.20;;;36.90;30.17;95878.19;4930951;28;20055;-68
2021/06/17 10:09:10;;;;;;;3.17;2.30;;;40.50;23.80;;;37.35;28.07;95877.44;4982753;28;20038;-66
2021/06/17 10:11:40;;;;;;;5.43;2.80;;;41.00;24.40;;;37.84;28.83;95884.09;4966142;28;20027;-65
2021/06/17 10:14:07;;;;;;;4.22;2.42;;;41.50;24.70;;;38.16;28.87;95882.56;4949703;28;20100;-66
2021/06/17 10:16:33;;;;;;;4.40;2.78;;;41.70;24.90;;;38.46;29.46;95874.31;4953674;28;20031;-67
2021/06/17 10:19:00;;;;;;;4.20;2.60;;;42.00;24.60;;;38.72;29.65;95881.75;4952133;28;20122;-64
2021/06/17 10:21:25;;;;;;;4.10;2.28;;;42.10;25.00;;;38.96;28.59;95879.63;4930360;28;20419;-67
2021/06/17 10:23:51;;;;;;;4.60;2.83;;;42.40;23.50;;;39.27;28.41;95870.91;4974857;28;20121;-66
2021/06/17 10:26:22;;;;;;;3.80;2.70;;;42.90;22.30;;;39.62;26.97;95873.19;4957001;28;20466;-68
2021/06/17 10:28:51;;;;;;;4.50;2.78;;;43.00;22.70;;;40.00;26.14;95882.88;4963995;28;20054;-67